sensor_id;sensor_type;location;lat;lon;timestamp;P1;durP1;ratioP1;P2;durP2;ratioP2
12721;SDS011;6425;50.316;8.114;2023-05-10T00:00:00;1.1;;;0.5;;
12721;SDS011;6425;50.316;8.114;2023-05-10T00:03:00;0.4;;;0.2;;
12721;SDS011;6425;50.316;8.114;2023-05-10T00:06:00;0.4;;;0.2;;
12721;SDS011;6425;50.316;8.114;2023-05-10T00:09:00;1.6;;;0.4;;
12721;SDS011;6425;50.316;8.114;2023-05-10T00:12:00;1.6;;;0.4;;
12721;SDS011;6425;50.316;8.114;2023-05-10T00:15:00;1.2;;;0.3;;
12721;SDS011;6425;50.316;8.114;2023-05-10T00:18:00;0.7;;;0.3;;
12721;SDS011;6425;50.316;8.114;2023-05-10T00:21:00;0.7;;;0.3;;
12721;SDS011;6425;50.316;8.114;2023-05-10T00:24:00;0.7;;;0.3;;
12721;SDS011;6425;50.316;8.114;2023-05-10T00:27:00;0.7;;;0.3;;
12721;SDS011;6425;50.316;8.114;2023-05-10T00:30:00;0.6;;;0.3;;
12721;SDS011;6425;50.316;8.114;2023-05-10T00:33:00;0.6;;;0.5;;
12721;SDS011;6425;50.316;8.114;2023-05-10T00:36:00;0.6;;;0.5;;
12721;SDS011;6425;50.316;8.114;2023-05-10T00:39:00;0.6;;;0.2;;
12721;SDS011;6425;50.316;8.114;2023-05-10T00:42:00;0.6;;;0.2;;
12721;SDS011;6425;50.316;8.114;2023-05-10T00:45:00;0.3;;;0.3;;
12721;SDS011;6425;50.316;8.114;2023-05-10T00:48:00;0.7;;;0.3;;
12721;SDS011;6425;50.316;8.114;2023-05-10T00:51:00;0.7;;;0.3;;
12721;SDS011;6425;50.316;8.114;2023-05-10T00:54:00;0.3;;;0.3;;
12721;SDS011;6425;50.316;8.114;2023-05-10T00:57:00;0.3;;;0.3;;
12721;SDS011;6425;50.316;8.114;2023-05-10T01:00:00;0.4;;;0.2;;
12721;SDS011;6425;50.316;8.114;2023-05-10T01:03:00;1.3;;;0.3;;
12721;SDS011;6425;50.316;8.114;2023-05-10T01:06:00;1.3;;;0.3;;
12721;SDS011;6425;50.316;8.114;2023-05-10T01:09:00;0.7;;;0.4;;
12721;SDS011;6425;50.316;8.114;2023-05-10T01:12:00;0.7;;;0.4;;
12721;SDS011;6425;50.316;8.114;2023-05-10T01:15:00;0.3;;;0.3;;
12721;SDS011;6425;50.316;8.114;2023-05-10T01:18:00;0.4;;;0.4;;
12721;SDS011;6425;50.316;8.114;2023-05-10T01:21:03;0.4;;;0.4;;
12721;SDS011;6425;50.316;8.114;2023-05-10T01:24:36;0.3;;;0.3;;
12721;SDS011;6425;50.316;8.114;2023-05-10T01:27:02;0.3;;;0.3;;
12721;SDS011;6425;50.316;8.114;2023-05-10T01:30:22;0.3;;;0.3;;
12721;SDS011;6425;50.316;8.114;2023-05-10T01:33:00;0.3;;;0.3;;
12721;SDS011;6425;50.316;8.114;2023-05-10T01:36:01;0.3;;;0.3;;
12721;SDS011;6425;50.316;8.114;2023-05-10T01:39:01;0.8;;;0.3;;
12721;SDS011;6425;50.316;8.114;2023-05-10T01:42:01;0.8;;;0.3;;
12721;SDS011;6425;50.316;8.114;2023-05-10T01:45:02;1.6;;;0.5;;
12721;SDS011;6425;50.316;8.114;2023-05-10T01:48:03;0.3;;;0.3;;
12721;SDS011;6425;50.316;8.114;2023-05-10T01:51:00;0.3;;;0.3;;
12721;SDS011;6425;50.316;8.114;2023-05-10T01:54:00;1.2;;;0.3;;
12721;SDS011;6425;50.316;8.114;2023-05-10T01:57:01;1.2;;;0.3;;
12721;SDS011;6425;50.316;8.114;2023-05-10T02:00:00;0.3;;;0.3;;
12721;SDS011;6425;50.316;8.114;2023-05-10T02:03:00;2.3;;;0.4;;
12721;SDS011;6425;50.316;8.114;2023-05-10T02:06:00;2.3;;;0.4;;
12721;SDS011;6425;50.316;8.114;2023-05-10T02:09:00;1;;;0.4;;
12721;SDS011;6425;50.316;8.114;2023-05-10T02:12:01;1;;;0.4;;
12721;SDS011;6425;50.316;8.114;2023-05-10T02:15:00;1;;;0.4;;
12721;SDS011;6425;50.316;8.114;2023-05-10T02:18:00;1.3;;;0.4;;
12721;SDS011;6425;50.316;8.114;2023-05-10T02:21:00;1.3;;;0.4;;
12721;SDS011;6425;50.316;8.114;2023-05-10T02:24:00;0.3;;;0.3;;
12721;SDS011;6425;50.316;8.114;2023-05-10T02:27:00;0.3;;;0.3;;
12721;SDS011;6425;50.316;8.114;2023-05-10T02:30:00;2.6;;;1.1;;
12721;SDS011;6425;50.316;8.114;2023-05-10T02:33:00;0.4;;;0.4;;
12721;SDS011;6425;50.316;8.114;2023-05-10T02:36:00;0.4;;;0.4;;
12721;SDS011;6425;50.316;8.114;2023-05-10T02:39:00;2;;;0.4;;
12721;SDS011;6425;50.316;8.114;2023-05-10T02:42:00;0.8;;;0.8;;
12721;SDS011;6425;50.316;8.114;2023-05-10T02:45:00;0.8;;;0.8;;
12721;SDS011;6425;50.316;8.114;2023-05-10T02:48:00;0.7;;;0.4;;
12721;SDS011;6425;50.316;8.114;2023-05-10T02:51:00;0.7;;;0.4;;
12721;SDS011;6425;50.316;8.114;2023-05-10T02:54:00;2.2;;;0.8;;
12721;SDS011;6425;50.316;8.114;2023-05-10T02:57:00;0.8;;;0.6;;
12721;SDS011;6425;50.316;8.114;2023-05-10T03:00:00;0.8;;;0.6;;
12721;SDS011;6425;50.316;8.114;2023-05-10T03:03:00;1.5;;;0.6;;
12721;SDS011;6425;50.316;8.114;2023-05-10T03:06:00;1.5;;;0.6;;
12721;SDS011;6425;50.316;8.114;2023-05-10T03:09:00;0.5;;;0.5;;
12721;SDS011;6425;50.316;8.114;2023-05-10T03:12:00;0.5;;;0.5;;
12721;SDS011;6425;50.316;8.114;2023-05-10T03:15:00;0.5;;;0.5;;
12721;SDS011;6425;50.316;8.114;2023-05-10T03:18:01;0.5;;;0.5;;
12721;SDS011;6425;50.316;8.114;2023-05-10T03:21:01;0.5;;;0.5;;
12721;SDS011;6425;50.316;8.114;2023-05-10T03:24:02;1;;;0.6;;
12721;SDS011;6425;50.316;8.114;2023-05-10T03:27:00;0.9;;;0.8;;
12721;SDS011;6425;50.316;8.114;2023-05-10T03:30:00;0.9;;;0.8;;
12721;SDS011;6425;50.316;8.114;2023-05-10T03:33:03;1.4;;;1.1;;
12721;SDS011;6425;50.316;8.114;2023-05-10T03:36:00;1.4;;;1.1;;
12721;SDS011;6425;50.316;8.114;2023-05-10T03:39:00;3.1;;;1.2;;
12721;SDS011;6425;50.316;8.114;2023-05-10T03:42:00;1.4;;;1.3;;
12721;SDS011;6425;50.316;8.114;2023-05-10T03:45:00;1.4;;;1.3;;
12721;SDS011;6425;50.316;8.114;2023-05-10T03:48:00;1.3;;;1.2;;
12721;SDS011;6425;50.316;8.114;2023-05-10T03:51:00;1.3;;;1.2;;
12721;SDS011;6425;50.316;8.114;2023-05-10T03:54:00;1.7;;;1;;
12721;SDS011;6425;50.316;8.114;2023-05-10T03:57:00;1;;;1;;
12721;SDS011;6425;50.316;8.114;2023-05-10T04:00:00;1;;;1;;
12721;SDS011;6425;50.316;8.114;2023-05-10T04:03:00;6;;;1.4;;
12721;SDS011;6425;50.316;8.114;2023-05-10T04:06:00;6;;;1.4;;
12721;SDS011;6425;50.316;8.114;2023-05-10T04:09:00;2;;;1.4;;
12721;SDS011;6425;50.316;8.114;2023-05-10T04:12:00;2.5;;;1.6;;
12721;SDS011;6425;50.316;8.114;2023-05-10T04:15:00;2.5;;;1.6;;
12721;SDS011;6425;50.316;8.114;2023-05-10T04:18:00;2.5;;;1.6;;
12721;SDS011;6425;50.316;8.114;2023-05-10T04:21:00;2.5;;;1.6;;
12721;SDS011;6425;50.316;8.114;2023-05-10T04:24:00;2.7;;;1.7;;
12721;SDS011;6425;50.316;8.114;2023-05-10T04:27:00;2.2;;;2;;
12721;SDS011;6425;50.316;8.114;2023-05-10T04:30:00;2.2;;;2;;
12721;SDS011;6425;50.316;8.114;2023-05-10T04:33:00;5.4;;;3.3;;
12721;SDS011;6425;50.316;8.114;2023-05-10T04:36:00;5.4;;;3.3;;
12721;SDS011;6425;50.316;8.114;2023-05-10T04:39:00;2.5;;;2.3;;
12721;SDS011;6425;50.316;8.114;2023-05-10T04:42:00;3.1;;;2.9;;
12721;SDS011;6425;50.316;8.114;2023-05-10T04:45:00;3.1;;;2.9;;
12721;SDS011;6425;50.316;8.114;2023-05-10T04:48:00;5.6;;;4.2;;
12721;SDS011;6425;50.316;8.114;2023-05-10T04:51:00;5.6;;;4.2;;
12721;SDS011;6425;50.316;8.114;2023-05-10T04:54:00;6.1;;;5.4;;
12721;SDS011;6425;50.316;8.114;2023-05-10T04:57:00;6;;;2.8;;
12721;SDS011;6425;50.316;8.114;2023-05-10T05:00:00;6;;;2.8;;
12721;SDS011;6425;50.316;8.114;2023-05-10T05:03:00;5.7;;;3.7;;
12721;SDS011;6425;50.316;8.114;2023-05-10T05:06:00;5.7;;;3.7;;
12721;SDS011;6425;50.316;8.114;2023-05-10T05:09:00;4.5;;;3.7;;
12721;SDS011;6425;50.316;8.114;2023-05-10T05:12:00;5.1;;;3.1;;
12721;SDS011;6425;50.316;8.114;2023-05-10T05:15:00;5.1;;;3.1;;
12721;SDS011;6425;50.316;8.114;2023-05-10T05:18:00;7.5;;;4.5;;
12721;SDS011;6425;50.316;8.114;2023-05-10T05:21:00;7.5;;;4.5;;
12721;SDS011;6425;50.316;8.114;2023-05-10T05:24:00;7.8;;;4.6;;
12721;SDS011;6425;50.316;8.114;2023-05-10T05:27:00;6.7;;;4.1;;
12721;SDS011;6425;50.316;8.114;2023-05-10T05:30:00;6.7;;;4.1;;
12721;SDS011;6425;50.316;8.114;2023-05-10T05:33:00;4.8;;;4.1;;
12721;SDS011;6425;50.316;8.114;2023-05-10T05:36:00;4.8;;;4.1;;
12721;SDS011;6425;50.316;8.114;2023-05-10T05:39:00;7.5;;;3.2;;
12721;SDS011;6425;50.316;8.114;2023-05-10T05:42:00;4.3;;;3.9;;
12721;SDS011;6425;50.316;8.114;2023-05-10T05:45:00;4.3;;;3.9;;
12721;SDS011;6425;50.316;8.114;2023-05-10T05:48:00;5.1;;;3.7;;
12721;SDS011;6425;50.316;8.114;2023-05-10T05:51:00;5.1;;;3.7;;
12721;SDS011;6425;50.316;8.114;2023-05-10T05:54:00;5.7;;;3.9;;
12721;SDS011;6425;50.316;8.114;2023-05-10T05:57:00;5.1;;;3;;
12721;SDS011;6425;50.316;8.114;2023-05-10T06:00:00;5.1;;;3;;
12721;SDS011;6425;50.316;8.114;2023-05-10T06:03:00;4.2;;;2.9;;
12721;SDS011;6425;50.316;8.114;2023-05-10T06:06:00;4.2;;;2.9;;
12721;SDS011;6425;50.316;8.114;2023-05-10T06:09:00;2.9;;;2.3;;
12721;SDS011;6425;50.316;8.114;2023-05-10T06:12:00;2.1;;;2;;
12721;SDS011;6425;50.316;8.114;2023-05-10T06:15:00;2.1;;;2;;
12721;SDS011;6425;50.316;8.114;2023-05-10T06:18:00;2.6;;;1.7;;
12721;SDS011;6425;50.316;8.114;2023-05-10T06:21:00;2.6;;;1.7;;
12721;SDS011;6425;50.316;8.114;2023-05-10T06:24:00;3.7;;;2.4;;
12721;SDS011;6425;50.316;8.114;2023-05-10T06:27:00;4.9;;;2.5;;
12721;SDS011;6425;50.316;8.114;2023-05-10T06:30:00;4.9;;;2.5;;
12721;SDS011;6425;50.316;8.114;2023-05-10T06:33:00;3.3;;;2.4;;
12721;SDS011;6425;50.316;8.114;2023-05-10T06:36:00;4.6;;;1.7;;
12721;SDS011;6425;50.316;8.114;2023-05-10T06:39:00;4.6;;;1.7;;
12721;SDS011;6425;50.316;8.114;2023-05-10T06:42:00;2.5;;;1.9;;
12721;SDS011;6425;50.316;8.114;2023-05-10T06:45:00;2.5;;;1.9;;
12721;SDS011;6425;50.316;8.114;2023-05-10T06:48:00;2.9;;;1.8;;
12721;SDS011;6425;50.316;8.114;2023-05-10T06:51:00;2.7;;;1.8;;
12721;SDS011;6425;50.316;8.114;2023-05-10T06:54:00;2.7;;;1.8;;
12721;SDS011;6425;50.316;8.114;2023-05-10T06:57:00;2.2;;;1.7;;
12721;SDS011;6425;50.316;8.114;2023-05-10T07:00:00;2.2;;;1.7;;
12721;SDS011;6425;50.316;8.114;2023-05-10T07:03:00;2.7;;;1.7;;
12721;SDS011;6425;50.316;8.114;2023-05-10T07:06:00;4.3;;;1.8;;
12721;SDS011;6425;50.316;8.114;2023-05-10T07:09:00;4.3;;;1.8;;
12721;SDS011;6425;50.316;8.114;2023-05-10T07:12:00;5.1;;;1.8;;
12721;SDS011;6425;50.316;8.114;2023-05-10T07:15:00;5.1;;;1.8;;
12721;SDS011;6425;50.316;8.114;2023-05-10T07:18:00;2.6;;;1.9;;
12721;SDS011;6425;50.316;8.114;2023-05-10T07:21:00;3.2;;;1.9;;
12721;SDS011;6425;50.316;8.114;2023-05-10T07:24:00;3.2;;;1.9;;
12721;SDS011;6425;50.316;8.114;2023-05-10T07:27:00;2;;;1.5;;
12721;SDS011;6425;50.316;8.114;2023-05-10T07:30:00;2;;;1.5;;
12721;SDS011;6425;50.316;8.114;2023-05-10T07:33:00;2.3;;;1.7;;
12721;SDS011;6425;50.316;8.114;2023-05-10T07:36:00;4;;;1.7;;
12721;SDS011;6425;50.316;8.114;2023-05-10T07:39:00;4;;;1.7;;
12721;SDS011;6425;50.316;8.114;2023-05-10T07:42:00;2.8;;;1.9;;
12721;SDS011;6425;50.316;8.114;2023-05-10T07:45:00;2.8;;;1.9;;
12721;SDS011;6425;50.316;8.114;2023-05-10T07:48:00;4.5;;;2.2;;
12721;SDS011;6425;50.316;8.114;2023-05-10T07:51:00;3.2;;;2.3;;
12721;SDS011;6425;50.316;8.114;2023-05-10T07:54:00;3.2;;;2.3;;
12721;SDS011;6425;50.316;8.114;2023-05-10T07:57:00;5.2;;;2.2;;
12721;SDS011;6425;50.316;8.114;2023-05-10T08:00:00;5.2;;;2.2;;
12721;SDS011;6425;50.316;8.114;2023-05-10T08:03:00;3.8;;;1.6;;
12721;SDS011;6425;50.316;8.114;2023-05-10T08:06:00;2.3;;;1.5;;
12721;SDS011;6425;50.316;8.114;2023-05-10T08:09:00;2.3;;;1.5;;
12721;SDS011;6425;50.316;8.114;2023-05-10T08:12:00;2.9;;;1.5;;
12721;SDS011;6425;50.316;8.114;2023-05-10T08:15:00;2.9;;;1.5;;
12721;SDS011;6425;50.316;8.114;2023-05-10T08:18:00;3.6;;;2.4;;
12721;SDS011;6425;50.316;8.114;2023-05-10T08:21:00;5.8;;;2.5;;
12721;SDS011;6425;50.316;8.114;2023-05-10T08:24:00;5.8;;;2.5;;
12721;SDS011;6425;50.316;8.114;2023-05-10T08:27:00;3.2;;;2;;
12721;SDS011;6425;50.316;8.114;2023-05-10T08:30:00;3.2;;;2;;
12721;SDS011;6425;50.316;8.114;2023-05-10T08:33:00;3.9;;;2.3;;
12721;SDS011;6425;50.316;8.114;2023-05-10T08:36:00;4.6;;;1.9;;
12721;SDS011;6425;50.316;8.114;2023-05-10T08:39:00;4.6;;;1.9;;
12721;SDS011;6425;50.316;8.114;2023-05-10T08:42:01;4.3;;;2.4;;
12721;SDS011;6425;50.316;8.114;2023-05-10T08:45:00;4.3;;;2.4;;
12721;SDS011;6425;50.316;8.114;2023-05-10T08:48:00;5.3;;;2.5;;
12721;SDS011;6425;50.316;8.114;2023-05-10T08:51:00;4.9;;;2.6;;
12721;SDS011;6425;50.316;8.114;2023-05-10T08:54:00;4.9;;;2.6;;
12721;SDS011;6425;50.316;8.114;2023-05-10T08:57:00;4.9;;;2.3;;
12721;SDS011;6425;50.316;8.114;2023-05-10T09:00:00;4.9;;;2.3;;
12721;SDS011;6425;50.316;8.114;2023-05-10T09:03:00;3.8;;;2;;
12721;SDS011;6425;50.316;8.114;2023-05-10T09:06:00;3.5;;;2;;
12721;SDS011;6425;50.316;8.114;2023-05-10T09:09:00;3.5;;;2;;
12721;SDS011;6425;50.316;8.114;2023-05-10T09:12:00;3.6;;;1.9;;
12721;SDS011;6425;50.316;8.114;2023-05-10T09:15:00;3.6;;;1.9;;
12721;SDS011;6425;50.316;8.114;2023-05-10T09:18:00;3.4;;;1.7;;
12721;SDS011;6425;50.316;8.114;2023-05-10T09:21:00;5.1;;;2;;
12721;SDS011;6425;50.316;8.114;2023-05-10T09:24:02;5.1;;;2;;
12721;SDS011;6425;50.316;8.114;2023-05-10T09:27:00;2.6;;;1.4;;
12721;SDS011;6425;50.316;8.114;2023-05-10T09:30:00;2.6;;;1.4;;
12721;SDS011;6425;50.316;8.114;2023-05-10T09:33:00;3.4;;;1.5;;
12721;SDS011;6425;50.316;8.114;2023-05-10T09:36:06;3.2;;;1.1;;
12721;SDS011;6425;50.316;8.114;2023-05-10T09:39:00;3.2;;;1.1;;
12721;SDS011;6425;50.316;8.114;2023-05-10T09:42:01;2;;;1.5;;
12721;SDS011;6425;50.316;8.114;2023-05-10T09:45:01;2;;;1.5;;
12721;SDS011;6425;50.316;8.114;2023-05-10T09:48:00;1.8;;;0.9;;
12721;SDS011;6425;50.316;8.114;2023-05-10T09:51:00;4.4;;;1.4;;
12721;SDS011;6425;50.316;8.114;2023-05-10T09:54:15;4.4;;;1.4;;
12721;SDS011;6425;50.316;8.114;2023-05-10T09:57:00;1.1;;;0.6;;
12721;SDS011;6425;50.316;8.114;2023-05-10T10:00:00;1.1;;;0.6;;
12721;SDS011;6425;50.316;8.114;2023-05-10T10:03:01;1;;;0.5;;
12721;SDS011;6425;50.316;8.114;2023-05-10T10:06:00;0.8;;;0.5;;
12721;SDS011;6425;50.316;8.114;2023-05-10T10:09:00;0.8;;;0.5;;
12721;SDS011;6425;50.316;8.114;2023-05-10T10:12:00;0.8;;;0.5;;
12721;SDS011;6425;50.316;8.114;2023-05-10T10:15:00;0.8;;;0.5;;
12721;SDS011;6425;50.316;8.114;2023-05-10T10:18:00;1.1;;;0.4;;
12721;SDS011;6425;50.316;8.114;2023-05-10T10:21:00;0.6;;;0.5;;
12721;SDS011;6425;50.316;8.114;2023-05-10T10:24:00;0.6;;;0.5;;
12721;SDS011;6425;50.316;8.114;2023-05-10T10:27:02;2.3;;;0.4;;
12721;SDS011;6425;50.316;8.114;2023-05-10T10:30:01;2.3;;;0.4;;
12721;SDS011;6425;50.316;8.114;2023-05-10T10:33:06;1.8;;;0.4;;
12721;SDS011;6425;50.316;8.114;2023-05-10T10:36:00;1.7;;;0.5;;
12721;SDS011;6425;50.316;8.114;2023-05-10T10:39:00;1.7;;;0.5;;
12721;SDS011;6425;50.316;8.114;2023-05-10T10:42:00;0.7;;;0.5;;
12721;SDS011;6425;50.316;8.114;2023-05-10T10:45:11;0.5;;;0.5;;
12721;SDS011;6425;50.316;8.114;2023-05-10T10:48:31;0.5;;;0.5;;
12721;SDS011;6425;50.316;8.114;2023-05-10T10:51:00;0.8;;;0.5;;
12721;SDS011;6425;50.316;8.114;2023-05-10T10:54:08;0.8;;;0.5;;
12721;SDS011;6425;50.316;8.114;2023-05-10T10:57:17;1.9;;;0.5;;
12721;SDS011;6425;50.316;8.114;2023-05-10T11:00:31;1.1;;;0.5;;
12721;SDS011;6425;50.316;8.114;2023-05-10T11:03:04;1.1;;;0.5;;
12721;SDS011;6425;50.316;8.114;2023-05-10T11:06:00;1.1;;;0.5;;
12721;SDS011;6425;50.316;8.114;2023-05-10T11:09:00;1.1;;;0.5;;
12721;SDS011;6425;50.316;8.114;2023-05-10T11:12:00;1.1;;;0.4;;
12721;SDS011;6425;50.316;8.114;2023-05-10T11:15:00;2.4;;;0.5;;
12721;SDS011;6425;50.316;8.114;2023-05-10T11:18:00;2.4;;;0.5;;
12721;SDS011;6425;50.316;8.114;2023-05-10T11:21:00;1.8;;;0.5;;
12721;SDS011;6425;50.316;8.114;2023-05-10T11:24:00;1.8;;;0.5;;
12721;SDS011;6425;50.316;8.114;2023-05-10T11:27:00;1.2;;;0.5;;
12721;SDS011;6425;50.316;8.114;2023-05-10T11:30:00;1.1;;;0.6;;
12721;SDS011;6425;50.316;8.114;2023-05-10T11:33:00;1.1;;;0.6;;
12721;SDS011;6425;50.316;8.114;2023-05-10T11:36:00;0.6;;;0.6;;
12721;SDS011;6425;50.316;8.114;2023-05-10T11:39:00;0.6;;;0.6;;
12721;SDS011;6425;50.316;8.114;2023-05-10T11:42:00;2.8;;;0.6;;
12721;SDS011;6425;50.316;8.114;2023-05-10T11:45:00;1.5;;;0.5;;
12721;SDS011;6425;50.316;8.114;2023-05-10T11:48:00;1.5;;;0.5;;
12721;SDS011;6425;50.316;8.114;2023-05-10T11:51:00;1.7;;;0.5;;
12721;SDS011;6425;50.316;8.114;2023-05-10T11:54:00;1.7;;;0.5;;
12721;SDS011;6425;50.316;8.114;2023-05-10T11:57:00;0.4;;;0.4;;
12721;SDS011;6425;50.316;8.114;2023-05-10T12:00:00;0.6;;;0.6;;
12721;SDS011;6425;50.316;8.114;2023-05-10T12:03:00;0.6;;;0.6;;
12721;SDS011;6425;50.316;8.114;2023-05-10T12:06:00;0.6;;;0.5;;
12721;SDS011;6425;50.316;8.114;2023-05-10T12:09:00;0.6;;;0.5;;
12721;SDS011;6425;50.316;8.114;2023-05-10T12:12:00;1.1;;;0.5;;
12721;SDS011;6425;50.316;8.114;2023-05-10T12:15:00;1.8;;;0.5;;
12721;SDS011;6425;50.316;8.114;2023-05-10T12:18:00;1.8;;;0.5;;
12721;SDS011;6425;50.316;8.114;2023-05-10T12:21:02;0.9;;;0.6;;
12721;SDS011;6425;50.316;8.114;2023-05-10T12:24:01;0.9;;;0.6;;
12721;SDS011;6425;50.316;8.114;2023-05-10T12:27:00;1.4;;;0.6;;
12721;SDS011;6425;50.316;8.114;2023-05-10T12:30:00;0.3;;;0.3;;
12721;SDS011;6425;50.316;8.114;2023-05-10T12:33:00;0.3;;;0.3;;
12721;SDS011;6425;50.316;8.114;2023-05-10T12:36:00;1.8;;;0.4;;
12721;SDS011;6425;50.316;8.114;2023-05-10T12:39:02;1.8;;;0.4;;
12721;SDS011;6425;50.316;8.114;2023-05-10T12:42:00;0.5;;;0.4;;
12721;SDS011;6425;50.316;8.114;2023-05-10T12:45:00;2.4;;;0.4;;
12721;SDS011;6425;50.316;8.114;2023-05-10T12:48:00;2.4;;;0.4;;
12721;SDS011;6425;50.316;8.114;2023-05-10T12:51:00;2.1;;;0.5;;
12721;SDS011;6425;50.316;8.114;2023-05-10T12:54:00;2.1;;;0.5;;
12721;SDS011;6425;50.316;8.114;2023-05-10T12:57:00;0.8;;;0.5;;
12721;SDS011;6425;50.316;8.114;2023-05-10T13:00:00;1.4;;;0.4;;
12721;SDS011;6425;50.316;8.114;2023-05-10T13:03:00;1.4;;;0.4;;
12721;SDS011;6425;50.316;8.114;2023-05-10T13:06:00;2.7;;;0.7;;
12721;SDS011;6425;50.316;8.114;2023-05-10T13:09:00;2.7;;;0.7;;
12721;SDS011;6425;50.316;8.114;2023-05-10T13:12:00;0.9;;;0.4;;
12721;SDS011;6425;50.316;8.114;2023-05-10T13:15:00;0.9;;;0.4;;
12721;SDS011;6425;50.316;8.114;2023-05-10T13:18:00;0.9;;;0.4;;
12721;SDS011;6425;50.316;8.114;2023-05-10T13:21:00;1.8;;;0.7;;
12721;SDS011;6425;50.316;8.114;2023-05-10T13:24:00;1.8;;;0.7;;
12721;SDS011;6425;50.316;8.114;2023-05-10T13:27:00;0.5;;;0.5;;
12721;SDS011;6425;50.316;8.114;2023-05-10T13:30:00;1;;;0.6;;
12721;SDS011;6425;50.316;8.114;2023-05-10T13:33:00;1;;;0.6;;
12721;SDS011;6425;50.316;8.114;2023-05-10T13:36:00;0.9;;;0.5;;
12721;SDS011;6425;50.316;8.114;2023-05-10T13:39:00;0.9;;;0.5;;
12721;SDS011;6425;50.316;8.114;2023-05-10T13:42:00;1.5;;;1;;
12721;SDS011;6425;50.316;8.114;2023-05-10T13:45:00;1.3;;;0.7;;
12721;SDS011;6425;50.316;8.114;2023-05-10T13:48:00;1.3;;;0.7;;
12721;SDS011;6425;50.316;8.114;2023-05-10T13:51:00;1.5;;;0.4;;
12721;SDS011;6425;50.316;8.114;2023-05-10T13:54:00;1.5;;;0.4;;
12721;SDS011;6425;50.316;8.114;2023-05-10T13:57:00;1.1;;;0.6;;
12721;SDS011;6425;50.316;8.114;2023-05-10T14:00:00;1.2;;;1.1;;
12721;SDS011;6425;50.316;8.114;2023-05-10T14:03:00;1.2;;;1.1;;
12721;SDS011;6425;50.316;8.114;2023-05-10T14:06:00;1.7;;;1.6;;
12721;SDS011;6425;50.316;8.114;2023-05-10T14:09:00;1.7;;;1.6;;
12721;SDS011;6425;50.316;8.114;2023-05-10T14:12:00;1.9;;;0.5;;
12721;SDS011;6425;50.316;8.114;2023-05-10T14:15:00;1.8;;;1.5;;
12721;SDS011;6425;50.316;8.114;2023-05-10T14:18:00;1.8;;;1.5;;
12721;SDS011;6425;50.316;8.114;2023-05-10T14:21:01;1.3;;;0.6;;
12721;SDS011;6425;50.316;8.114;2023-05-10T14:24:00;1.3;;;0.6;;
12721;SDS011;6425;50.316;8.114;2023-05-10T14:27:00;2.2;;;1.7;;
12721;SDS011;6425;50.316;8.114;2023-05-10T14:30:00;2.3;;;0.9;;
12721;SDS011;6425;50.316;8.114;2023-05-10T14:33:00;2.3;;;0.9;;
12721;SDS011;6425;50.316;8.114;2023-05-10T14:36:00;1;;;1;;
12721;SDS011;6425;50.316;8.114;2023-05-10T14:39:00;1;;;1;;
12721;SDS011;6425;50.316;8.114;2023-05-10T14:42:00;1.9;;;1.4;;
12721;SDS011;6425;50.316;8.114;2023-05-10T14:45:00;0.9;;;0.4;;
12721;SDS011;6425;50.316;8.114;2023-05-10T14:48:00;0.9;;;0.4;;
12721;SDS011;6425;50.316;8.114;2023-05-10T14:51:00;1.9;;;1.8;;
12721;SDS011;6425;50.316;8.114;2023-05-10T14:54:00;1.9;;;1.8;;
12721;SDS011;6425;50.316;8.114;2023-05-10T14:57:00;2.8;;;2.6;;
12721;SDS011;6425;50.316;8.114;2023-05-10T15:00:00;1.3;;;1;;
12721;SDS011;6425;50.316;8.114;2023-05-10T15:03:00;1.3;;;1;;
12721;SDS011;6425;50.316;8.114;2023-05-10T15:06:00;1.2;;;0.9;;
12721;SDS011;6425;50.316;8.114;2023-05-10T15:09:00;1.2;;;0.9;;
12721;SDS011;6425;50.316;8.114;2023-05-10T15:12:00;2.6;;;0.5;;
12721;SDS011;6425;50.316;8.114;2023-05-10T15:15:00;0.7;;;0.7;;
12721;SDS011;6425;50.316;8.114;2023-05-10T15:18:00;0.7;;;0.7;;
12721;SDS011;6425;50.316;8.114;2023-05-10T15:21:00;1.9;;;0.9;;
12721;SDS011;6425;50.316;8.114;2023-05-10T15:24:00;1.9;;;0.9;;
12721;SDS011;6425;50.316;8.114;2023-05-10T15:27:00;2.5;;;2.4;;
12721;SDS011;6425;50.316;8.114;2023-05-10T15:30:00;3.4;;;2.3;;
12721;SDS011;6425;50.316;8.114;2023-05-10T15:33:00;3.4;;;2.3;;
12721;SDS011;6425;50.316;8.114;2023-05-10T15:36:00;2.1;;;1.4;;
12721;SDS011;6425;50.316;8.114;2023-05-10T15:39:00;1.6;;;1.1;;
12721;SDS011;6425;50.316;8.114;2023-05-10T15:42:00;1.5;;;1.1;;
12721;SDS011;6425;50.316;8.114;2023-05-10T15:45:00;1.1;;;0.8;;
12721;SDS011;6425;50.316;8.114;2023-05-10T15:48:00;1.1;;;0.8;;
12721;SDS011;6425;50.316;8.114;2023-05-10T15:54:00;2.6;;;0.9;;
12721;SDS011;6425;50.316;8.114;2023-05-10T15:57:00;2.6;;;0.9;;
12721;SDS011;6425;50.316;8.114;2023-05-10T16:00:00;1;;;0.9;;
12721;SDS011;6425;50.316;8.114;2023-05-10T16:03:00;1;;;0.9;;
12721;SDS011;6425;50.316;8.114;2023-05-10T16:06:00;2.5;;;0.7;;
12721;SDS011;6425;50.316;8.114;2023-05-10T16:09:00;2.4;;;0.5;;
12721;SDS011;6425;50.316;8.114;2023-05-10T16:12:00;2.4;;;0.5;;
12721;SDS011;6425;50.316;8.114;2023-05-10T16:15:00;1.3;;;0.6;;
12721;SDS011;6425;50.316;8.114;2023-05-10T16:18:00;1.3;;;0.6;;
12721;SDS011;6425;50.316;8.114;2023-05-10T16:21:00;0.5;;;0.5;;
12721;SDS011;6425;50.316;8.114;2023-05-10T16:24:02;1.7;;;0.5;;
12721;SDS011;6425;50.316;8.114;2023-05-10T16:27:00;1.7;;;0.5;;
12721;SDS011;6425;50.316;8.114;2023-05-10T16:30:00;2;;;0.6;;
12721;SDS011;6425;50.316;8.114;2023-05-10T16:33:00;2;;;0.6;;
12721;SDS011;6425;50.316;8.114;2023-05-10T16:36:00;0.6;;;0.6;;
12721;SDS011;6425;50.316;8.114;2023-05-10T16:39:00;0.6;;;0.5;;
12721;SDS011;6425;50.316;8.114;2023-05-10T16:42:00;0.6;;;0.5;;
12721;SDS011;6425;50.316;8.114;2023-05-10T16:45:00;1.2;;;0.6;;
12721;SDS011;6425;50.316;8.114;2023-05-10T16:48:00;1.2;;;0.6;;
12721;SDS011;6425;50.316;8.114;2023-05-10T16:51:01;0.8;;;0.5;;
12721;SDS011;6425;50.316;8.114;2023-05-10T16:54:00;1.5;;;0.5;;
12721;SDS011;6425;50.316;8.114;2023-05-10T16:57:00;1.5;;;0.5;;
12721;SDS011;6425;50.316;8.114;2023-05-10T17:00:00;3;;;0.9;;
12721;SDS011;6425;50.316;8.114;2023-05-10T17:03:00;3;;;0.9;;
12721;SDS011;6425;50.316;8.114;2023-05-10T17:06:00;3.7;;;1.3;;
12721;SDS011;6425;50.316;8.114;2023-05-10T17:09:00;2.8;;;1.7;;
12721;SDS011;6425;50.316;8.114;2023-05-10T17:12:00;2.8;;;1.7;;
12721;SDS011;6425;50.316;8.114;2023-05-10T17:15:00;2.8;;;1.8;;
12721;SDS011;6425;50.316;8.114;2023-05-10T17:18:00;2.8;;;1.8;;
12721;SDS011;6425;50.316;8.114;2023-05-10T17:21:00;4.3;;;1.3;;
12721;SDS011;6425;50.316;8.114;2023-05-10T17:24:00;5.6;;;1.6;;
12721;SDS011;6425;50.316;8.114;2023-05-10T17:27:00;5.6;;;1.6;;
12721;SDS011;6425;50.316;8.114;2023-05-10T17:30:00;3.4;;;1.8;;
12721;SDS011;6425;50.316;8.114;2023-05-10T17:33:00;3.4;;;1.8;;
12721;SDS011;6425;50.316;8.114;2023-05-10T17:36:00;3.1;;;1.7;;
12721;SDS011;6425;50.316;8.114;2023-05-10T17:39:00;2.5;;;1.6;;
12721;SDS011;6425;50.316;8.114;2023-05-10T17:42:00;2.5;;;1.6;;
12721;SDS011;6425;50.316;8.114;2023-05-10T17:45:00;2;;;1.6;;
12721;SDS011;6425;50.316;8.114;2023-05-10T17:48:00;2;;;1.6;;
12721;SDS011;6425;50.316;8.114;2023-05-10T17:51:00;2.4;;;1.6;;
12721;SDS011;6425;50.316;8.114;2023-05-10T17:54:00;3.8;;;1.8;;
12721;SDS011;6425;50.316;8.114;2023-05-10T17:57:00;3.8;;;1.8;;
12721;SDS011;6425;50.316;8.114;2023-05-10T18:00:00;2.9;;;1.7;;
12721;SDS011;6425;50.316;8.114;2023-05-10T18:03:01;2.9;;;1.7;;
12721;SDS011;6425;50.316;8.114;2023-05-10T18:06:00;3.9;;;1.8;;
12721;SDS011;6425;50.316;8.114;2023-05-10T18:09:00;3.2;;;1.7;;
12721;SDS011;6425;50.316;8.114;2023-05-10T18:12:00;3.2;;;1.7;;
12721;SDS011;6425;50.316;8.114;2023-05-10T18:15:00;1.9;;;1.4;;
12721;SDS011;6425;50.316;8.114;2023-05-10T18:18:00;1.9;;;1.4;;
12721;SDS011;6425;50.316;8.114;2023-05-10T18:21:00;2.2;;;1.5;;
12721;SDS011;6425;50.316;8.114;2023-05-10T18:24:00;2.5;;;1.7;;
12721;SDS011;6425;50.316;8.114;2023-05-10T18:27:00;2.5;;;1.7;;
12721;SDS011;6425;50.316;8.114;2023-05-10T18:30:00;1.6;;;1;;
12721;SDS011;6425;50.316;8.114;2023-05-10T18:33:00;1.6;;;1;;
12721;SDS011;6425;50.316;8.114;2023-05-10T18:36:00;1.4;;;0.9;;
12721;SDS011;6425;50.316;8.114;2023-05-10T18:39:00;2;;;0.9;;
12721;SDS011;6425;50.316;8.114;2023-05-10T18:42:00;2;;;0.9;;
12721;SDS011;6425;50.316;8.114;2023-05-10T18:45:00;1.9;;;1;;
12721;SDS011;6425;50.316;8.114;2023-05-10T18:48:00;1.9;;;1;;
12721;SDS011;6425;50.316;8.114;2023-05-10T18:51:00;1.4;;;1.1;;
12721;SDS011;6425;50.316;8.114;2023-05-10T18:54:00;1.7;;;1.6;;
12721;SDS011;6425;50.316;8.114;2023-05-10T18:57:00;1.7;;;1.6;;
12721;SDS011;6425;50.316;8.114;2023-05-10T19:00:00;2.1;;;1.6;;
12721;SDS011;6425;50.316;8.114;2023-05-10T19:03:00;2.1;;;1.6;;